createdAt,value
2023-01-06T00:02:02.781Z,5.23
2023-01-06T00:04:48.171Z,5.33
2023-01-06T00:07:33.813Z,5.40
2023-01-06T00:10:19.740Z,4.33
2023-01-06T00:13:05.068Z,4.37
2023-01-06T00:15:50.689Z,4.87
2023-01-06T00:18:36.134Z,4.50
2023-01-06T00:21:21.541Z,4.30
2023-01-06T00:24:07.212Z,7.00
2023-01-06T00:26:52.586Z,5.50
2023-01-06T00:29:38.090Z,5.00
2023-01-06T00:32:23.650Z,5.00
2023-01-06T00:35:09.398Z,4.37
2023-01-06T00:37:54.760Z,4.83
2023-01-06T00:40:40.169Z,4.10
2023-01-06T00:43:25.538Z,4.23
2023-01-06T00:46:10.737Z,4.27
2023-01-06T00:49:05.250Z,3.83
2023-01-06T00:51:51.067Z,4.85
2023-01-06T00:54:37.175Z,4.03
2023-01-06T00:57:22.563Z,4.77
2023-01-06T01:00:09.679Z,4.00
2023-01-06T01:02:54.937Z,4.13
2023-01-06T01:05:40.458Z,4.43
2023-01-06T01:08:26.027Z,4.90
2023-01-06T01:11:35.665Z,4.53
2023-01-06T01:14:21.460Z,4.40
2023-01-06T01:17:08.222Z,5.07
2023-01-06T01:19:55.617Z,4.60
2023-01-06T01:22:41.082Z,5.43
2023-01-06T01:25:26.629Z,4.27
2023-01-06T01:28:12.019Z,4.57
2023-01-06T01:31:01.637Z,4.50
2023-01-06T01:33:47.183Z,5.20
2023-01-06T01:36:32.934Z,5.43
2023-01-06T01:39:21.620Z,6.63
2023-01-06T01:42:11.444Z,4.83
2023-01-06T01:45:03.162Z,11.10
2023-01-06T01:48:03.910Z,8.90
2023-01-06T01:50:53.679Z,7.10
2023-01-06T01:53:44.864Z,4.60
2023-01-06T01:56:33.327Z,4.63
2023-01-06T01:59:25.147Z,3.87
2023-01-06T02:02:11.173Z,3.97
2023-01-06T02:04:57.116Z,4.17
2023-01-06T02:07:42.798Z,4.50
2023-01-06T02:10:28.045Z,4.20
2023-01-06T02:13:13.722Z,4.47
2023-01-06T02:16:09.386Z,4.20
2023-01-06T02:19:00.596Z,3.80
2023-01-06T02:22:04.977Z,3.73
2023-01-06T02:25:25.236Z,3.65
2023-01-06T02:28:58.719Z,3.87
2023-01-06T02:31:59.045Z,4.83
2023-01-06T02:35:29.772Z,3.47
2023-01-06T02:38:18.354Z,3.30
2023-01-06T02:41:37.340Z,3.93
2023-01-06T02:44:39.806Z,3.33
2023-01-06T02:47:40.523Z,3.90
2023-01-06T02:50:52.951Z,3.23
2023-01-06T02:54:12.397Z,3.50
2023-01-06T02:57:07.176Z,3.20
2023-01-06T03:00:09.893Z,3.25
2023-01-06T03:03:10.605Z,3.80
2023-01-06T03:06:01.610Z,3.60
2023-01-06T03:08:49.367Z,3.97
2023-01-06T03:11:35.921Z,6.27
2023-01-06T03:14:26.556Z,4.20
2023-01-06T03:17:12.287Z,4.30
2023-01-06T03:19:58.084Z,3.60
2023-01-06T03:22:43.960Z,3.80
2023-01-06T03:25:29.755Z,4.17
2023-01-06T03:28:15.027Z,3.60
2023-01-06T03:31:15.150Z,4.10
2023-01-06T03:34:10.167Z,4.13
2023-01-06T03:37:13.930Z,4.53
2023-01-06T03:40:20.093Z,4.00
2023-01-06T03:43:13.556Z,3.73
2023-01-06T03:46:14.088Z,4.17
2023-01-06T03:49:07.968Z,3.70
2023-01-06T03:52:07.461Z,3.78
2023-01-06T03:55:16.987Z,3.13
2023-01-06T03:58:06.183Z,3.10
2023-01-06T04:00:52.434Z,3.53
2023-01-06T04:03:37.953Z,2.90
2023-01-06T04:06:23.564Z,2.70
2023-01-06T04:09:09.129Z,2.80
2023-01-06T04:12:13.256Z,2.40
2023-01-06T04:14:58.571Z,2.53
2023-01-06T04:17:45.574Z,2.60
2023-01-06T04:20:31.374Z,2.33
2023-01-06T04:23:16.609Z,2.30
2023-01-06T04:26:02.098Z,2.50
2023-01-06T04:28:47.660Z,3.60
2023-01-06T04:31:35.426Z,4.70
2023-01-06T04:34:21.323Z,4.87
2023-01-06T04:37:07.012Z,4.17
2023-01-06T04:39:52.601Z,4.00
2023-01-06T04:42:56.572Z,3.00
2023-01-06T04:45:43.471Z,3.43
2023-01-06T04:48:29.297Z,3.47
2023-01-06T04:51:14.766Z,3.33
2023-01-06T04:54:00.301Z,3.30
2023-01-06T04:56:46.011Z,3.43
2023-01-06T04:59:31.392Z,3.57
2023-01-06T05:02:16.924Z,3.90
2023-01-06T05:05:02.218Z,3.07
2023-01-06T05:07:47.786Z,3.73
2023-01-06T05:10:33.270Z,3.70
2023-01-06T05:13:18.850Z,3.87
2023-01-06T05:16:09.640Z,3.37
2023-01-06T05:18:55.746Z,3.33
2023-01-06T05:21:40.875Z,3.83
2023-01-06T05:24:26.558Z,3.93
2023-01-06T05:27:12.148Z,3.90
2023-01-06T05:29:57.375Z,3.97
2023-01-06T05:32:42.775Z,3.97
2023-01-06T05:35:28.364Z,4.07
2023-01-06T05:38:13.963Z,3.93
2023-01-06T05:40:59.766Z,3.50
2023-01-06T05:43:45.375Z,3.00
2023-01-06T05:46:31.018Z,3.30
2023-01-06T05:49:16.695Z,2.90
2023-01-06T05:52:02.229Z,3.23
2023-01-06T05:54:47.697Z,3.27
2023-01-06T05:57:34.443Z,3.00
2023-01-06T06:00:20.029Z,3.23
2023-01-06T06:03:05.194Z,3.30
2023-01-06T06:05:50.739Z,2.80
2023-01-06T06:08:36.429Z,3.27
2023-01-06T06:11:22.534Z,2.70
2023-01-06T06:14:10.362Z,2.70
2023-01-06T06:16:56.264Z,2.90
2023-01-06T06:19:41.791Z,3.00
2023-01-06T06:22:27.335Z,2.90
2023-01-06T06:25:12.912Z,3.37
2023-01-06T06:27:59.617Z,3.37
2023-01-06T06:30:45.163Z,3.10
2023-01-06T06:33:30.769Z,3.90
2023-01-06T06:36:16.348Z,3.67
2023-01-06T06:39:01.912Z,3.97
2023-01-06T06:41:47.294Z,3.63
2023-01-06T06:44:32.704Z,3.50
2023-01-06T06:47:18.280Z,3.40
2023-01-06T06:50:04.032Z,2.57
2023-01-06T06:52:49.334Z,3.03
2023-01-06T06:55:34.962Z,3.40
2023-01-06T06:58:20.579Z,3.57
2023-01-06T07:01:07.644Z,3.50
2023-01-06T07:03:53.423Z,4.17
2023-01-06T07:06:38.962Z,4.23
2023-01-06T07:09:24.444Z,4.50
2023-01-06T07:12:10.001Z,4.50
2023-01-06T07:14:55.340Z,4.47
2023-01-06T07:17:41.971Z,3.73
2023-01-06T07:20:27.358Z,4.10
2023-01-06T07:23:13.012Z,4.40
2023-01-06T07:26:00.220Z,4.80
2023-01-06T07:28:45.499Z,3.90
2023-01-06T07:31:31.005Z,4.10
2023-01-06T07:34:16.478Z,3.93
2023-01-06T07:37:02.083Z,3.37
2023-01-06T07:39:47.459Z,3.30
2023-01-06T07:42:32.950Z,2.83
2023-01-06T07:45:18.475Z,3.33
2023-01-06T07:48:04.802Z,3.40
2023-01-06T07:50:50.569Z,3.03
2023-01-06T07:53:35.925Z,2.60
2023-01-06T07:56:21.907Z,2.90
2023-01-06T07:59:07.305Z,3.17
2023-01-06T08:01:52.661Z,3.00
2023-01-06T08:04:38.006Z,2.70
2023-01-06T08:07:23.422Z,3.40
2023-01-06T08:10:09.265Z,2.93
2023-01-06T08:12:54.716Z,2.73
2023-01-06T08:15:40.762Z,3.00
2023-01-06T08:18:28.122Z,2.80
2023-01-06T08:21:13.718Z,2.63
2023-01-06T08:23:59.156Z,3.37
2023-01-06T08:26:44.672Z,3.50
2023-01-06T08:29:30.048Z,3.33
2023-01-06T08:32:15.799Z,3.10
2023-01-06T08:35:01.237Z,3.37
2023-01-06T08:37:46.827Z,2.90
2023-01-06T08:40:32.372Z,2.70
2023-01-06T08:43:17.936Z,2.73
2023-01-06T08:46:06.430Z,2.70
2023-01-06T08:48:52.027Z,2.47
2023-01-06T08:51:37.392Z,2.90
2023-01-06T08:54:22.675Z,2.53
2023-01-06T08:57:09.171Z,3.47
2023-01-06T08:59:54.744Z,2.60
2023-01-06T09:02:40.420Z,2.80
2023-01-06T09:05:25.997Z,2.67
2023-01-06T09:08:11.308Z,2.97
2023-01-06T09:10:56.904Z,2.87
2023-01-06T09:13:43.167Z,3.00
2023-01-06T09:16:28.472Z,2.60
2023-01-06T09:19:13.959Z,3.33
2023-01-06T09:22:00.990Z,2.57
2023-01-06T09:24:46.715Z,3.10
2023-01-06T09:27:32.339Z,3.70
2023-01-06T09:30:17.912Z,3.10
2023-01-06T09:33:03.121Z,3.07
2023-01-06T09:35:48.678Z,3.23
2023-01-06T09:38:34.063Z,3.97
2023-01-06T09:41:44.618Z,3.20
2023-01-06T09:44:40.316Z,3.40
2023-01-06T09:47:30.881Z,3.00
2023-01-06T09:50:28.841Z,2.67
2023-01-06T09:53:47.106Z,2.90
2023-01-06T09:56:32.971Z,3.00
2023-01-06T09:59:25.676Z,3.00
2023-01-06T10:02:24.497Z,3.07
2023-01-06T10:05:22.270Z,3.03
2023-01-06T10:08:30.077Z,3.00
2023-01-06T10:11:27.035Z,3.23
2023-01-06T10:14:33.489Z,3.33
2023-01-06T10:17:37.009Z,3.70
2023-01-06T10:20:28.651Z,3.37
2023-01-06T10:23:26.987Z,3.80
2023-01-06T10:26:29.436Z,3.37
2023-01-06T10:29:17.852Z,3.90
2023-01-06T10:32:06.107Z,3.13
2023-01-06T10:34:51.744Z,2.70
2023-01-06T10:37:39.980Z,2.70
2023-01-06T10:40:28.337Z,3.07
2023-01-06T10:43:14.911Z,3.30
2023-01-06T10:46:00.457Z,3.47
2023-01-06T10:48:47.098Z,3.07
2023-01-06T10:51:39.307Z,2.93
2023-01-06T10:54:33.753Z,2.90
2023-01-06T10:57:26.955Z,3.13
2023-01-06T11:00:22.487Z,3.30
2023-01-06T11:03:31.877Z,3.30
2023-01-06T11:06:29.765Z,3.23
2023-01-06T11:09:39.315Z,3.60
2023-01-06T11:12:28.810Z,2.92
2023-01-06T11:15:22.199Z,3.17
2023-01-06T11:18:26.602Z,2.93
2023-01-06T11:21:16.676Z,3.03
2023-01-06T11:24:20.384Z,3.23
2023-01-06T11:27:17.211Z,3.05
2023-01-06T11:30:21.367Z,3.30
2023-01-06T11:33:19.851Z,3.50
2023-01-06T11:36:14.547Z,3.00
2023-01-06T11:39:03.422Z,3.40
2023-01-06T11:41:51.499Z,3.20
2023-01-06T11:44:40.195Z,3.08
2023-01-06T11:47:27.379Z,3.28
2023-01-06T11:50:19.726Z,3.05
2023-01-06T11:53:16.876Z,2.88
2023-01-06T11:56:16.081Z,3.30
2023-01-06T11:59:09.728Z,3.28
2023-01-06T12:02:00.256Z,4.13
2023-01-06T12:04:53.171Z,3.67
2023-01-06T12:07:48.946Z,3.50
2023-01-06T12:10:36.670Z,3.90
2023-01-06T12:13:22.319Z,3.90
2023-01-06T12:16:17.580Z,4.00
2023-01-06T12:19:04.950Z,4.00
2023-01-06T12:21:51.438Z,4.38
2023-01-06T12:24:37.616Z,4.15
2023-01-06T12:27:37.516Z,4.60
2023-01-06T12:30:34.383Z,4.03
2023-01-06T12:33:52.414Z,3.83
2023-01-06T12:36:37.632Z,5.97
2023-01-06T12:39:28.694Z,5.05
2023-01-06T12:42:24.099Z,5.10
2023-01-06T12:45:18.323Z,3.85
2023-01-06T12:48:26.890Z,3.97
2023-01-06T12:51:27.556Z,4.10
2023-01-06T12:54:21.259Z,4.25
2023-01-06T12:57:18.799Z,4.57
2023-01-06T13:00:10.397Z,4.75
2023-01-06T13:03:09.570Z,4.60
2023-01-06T13:06:52.447Z,4.35
2023-01-06T13:10:04.012Z,4.10
2023-01-06T13:13:35.929Z,4.10
2023-01-06T13:16:38.111Z,4.47
2023-01-06T13:19:44.338Z,4.18
2023-01-06T13:22:52.457Z,4.25
2023-01-06T13:26:05.954Z,4.60
2023-01-06T13:29:07.263Z,4.40
2023-01-06T13:32:16.875Z,4.90
2023-01-06T13:35:12.712Z,5.35
2023-01-06T13:38:19.759Z,5.68
2023-01-06T13:41:10.708Z,6.53
2023-01-06T13:43:58.385Z,7.68
2023-01-06T13:46:46.731Z,6.35
2023-01-06T13:49:32.072Z,6.57
2023-01-06T13:52:24.121Z,6.60
2023-01-06T13:55:23.616Z,6.57
2023-01-06T13:58:25.563Z,6.00
2023-01-06T14:01:20.452Z,5.40
2023-01-06T14:04:27.636Z,5.72
2023-01-06T14:07:13.555Z,5.97
2023-01-06T14:10:00.905Z,6.30
2023-01-06T14:12:48.371Z,5.90
2023-01-06T14:15:36.295Z,5.75
2023-01-06T14:18:37.759Z,6.45
2023-01-06T14:21:28.995Z,6.35
2023-01-06T14:24:33.300Z,6.30
2023-01-06T14:27:49.494Z,6.22
2023-01-06T14:30:36.741Z,6.43
2023-01-06T14:33:37.830Z,6.32
2023-01-06T14:36:25.125Z,6.15
2023-01-06T14:39:20.675Z,6.93
2023-01-06T14:42:21.351Z,7.05
2023-01-06T14:45:35.149Z,6.10
2023-01-06T14:48:24.380Z,6.47
2023-01-06T14:51:16.132Z,5.53
2023-01-06T14:54:22.712Z,5.97
2023-01-06T14:57:24.422Z,5.32
2023-01-06T15:00:24.646Z,5.88
2023-01-06T15:03:24.402Z,5.45
2023-01-06T15:06:12.964Z,4.35
2023-01-06T15:09:20.367Z,4.30
2023-01-06T15:12:26.762Z,4.78
2023-01-06T15:15:33.381Z,4.10
2023-01-06T15:18:18.707Z,4.60
2023-01-06T15:21:04.316Z,4.40
2023-01-06T15:23:51.993Z,4.28
2023-01-06T15:26:37.495Z,4.57
2023-01-06T15:29:24.943Z,4.20
2023-01-06T15:32:13.273Z,4.43
2023-01-06T15:34:59.744Z,4.10
2023-01-06T15:37:46.543Z,4.40
2023-01-06T15:40:32.532Z,4.30
2023-01-06T15:43:18.780Z,4.55
2023-01-06T15:46:10.181Z,3.38
2023-01-06T15:48:55.619Z,4.22
2023-01-06T15:51:40.951Z,3.63
2023-01-06T15:54:29.151Z,3.83
2023-01-06T15:57:17.232Z,3.60
2023-01-06T16:00:07.754Z,4.00
2023-01-06T16:02:53.800Z,4.25
2023-01-06T16:05:43.815Z,3.78
2023-01-06T16:08:30.007Z,3.78
2023-01-06T16:11:45.814Z,4.13
2023-01-06T16:14:36.884Z,3.50
2023-01-06T16:17:33.175Z,3.83
2023-01-06T16:20:24.544Z,3.30
2023-01-06T16:23:25.930Z,3.72
2023-01-06T16:26:15.657Z,3.65
2023-01-06T16:29:04.764Z,3.90
2023-01-06T16:31:50.275Z,3.35
2023-01-06T16:34:35.963Z,3.30
2023-01-06T16:37:21.326Z,3.38
2023-01-06T16:40:07.458Z,3.13
2023-01-06T16:43:00.309Z,2.88
2023-01-06T16:45:52.038Z,3.15
2023-01-06T16:48:37.312Z,2.50
2023-01-06T16:51:24.067Z,2.55
2023-01-06T16:54:10.916Z,2.67
2023-01-06T16:56:56.326Z,2.38
2023-01-06T16:59:41.632Z,2.92
2023-01-06T17:02:27.155Z,2.80
2023-01-06T17:05:23.022Z,2.83
2023-01-06T17:08:13.990Z,5.68
2023-01-06T17:11:02.193Z,3.57
2023-01-06T17:13:53.918Z,3.25
2023-01-06T17:16:41.276Z,3.40
2023-01-06T17:19:29.337Z,3.50
2023-01-06T17:22:31.013Z,3.10
2023-01-06T17:25:16.443Z,3.63
2023-01-06T17:28:07.190Z,3.20
2023-01-06T17:30:52.663Z,3.50
2023-01-06T17:33:38.176Z,3.50
2023-01-06T17:36:28.282Z,4.20
2023-01-06T17:39:18.641Z,3.80
2023-01-06T17:42:13.353Z,4.10
2023-01-06T17:45:00.301Z,4.88
2023-01-06T17:47:49.580Z,4.07
2023-01-06T17:50:36.095Z,4.20
2023-01-06T17:53:47.034Z,3.85
2023-01-06T17:56:32.443Z,4.10
2023-01-06T17:59:17.881Z,3.70
2023-01-06T18:02:19.216Z,3.40
2023-01-06T18:05:26.737Z,3.08
2023-01-06T18:08:16.538Z,4.00
2023-01-06T18:11:22.809Z,3.60
2023-01-06T18:14:19.035Z,3.15
2023-01-06T18:17:19.893Z,3.50
2023-01-06T18:20:05.430Z,3.40
2023-01-06T18:22:51.108Z,3.03
2023-01-06T18:25:36.308Z,3.47
2023-01-06T18:28:22.615Z,3.15
2023-01-06T18:31:16.186Z,3.53
2023-01-06T18:34:14.644Z,3.90
2023-01-06T18:37:01.266Z,3.50
2023-01-06T18:39:49.323Z,3.40
2023-01-06T18:42:44.516Z,2.90
2023-01-06T18:45:35.264Z,3.08
2023-01-06T18:48:32.261Z,2.88
2023-01-06T18:51:22.999Z,2.90
2023-01-06T18:54:19.719Z,3.23
2023-01-06T18:57:23.944Z,3.30
2023-01-06T19:00:52.205Z,2.88
2023-01-06T19:03:41.215Z,2.60
2023-01-06T19:06:42.074Z,3.85
2023-01-06T19:09:40.732Z,3.60
2023-01-06T19:12:29.542Z,3.80
2023-01-06T19:15:14.909Z,3.67
2023-01-06T19:18:01.070Z,3.83
2023-01-06T19:20:47.363Z,4.23
2023-01-06T19:23:34.501Z,5.15
2023-01-06T19:26:34.170Z,5.72
2023-01-06T19:29:24.779Z,4.80
2023-01-06T19:32:15.191Z,4.70
2023-01-06T19:35:00.995Z,5.38
2023-01-06T19:37:46.342Z,4.07
2023-01-06T19:40:35.637Z,4.40
2023-01-06T19:43:33.079Z,4.53
2023-01-06T19:46:24.614Z,3.83
2023-01-06T19:49:26.314Z,4.07
2023-01-06T19:52:37.646Z,4.25
2023-01-06T19:55:30.869Z,4.37
2023-01-06T19:58:26.724Z,4.90
2023-01-06T20:01:14.313Z,4.63
2023-01-06T20:04:00.459Z,4.47
2023-01-06T20:06:45.978Z,4.15
2023-01-06T20:09:33.578Z,4.53
2023-01-06T20:12:19.507Z,4.33
2023-01-06T20:15:06.801Z,4.32
2023-01-06T20:17:52.543Z,4.00
2023-01-06T20:20:37.980Z,4.07
2023-01-06T20:23:23.572Z,3.83
2023-01-06T20:26:09.287Z,4.13
2023-01-06T20:28:54.691Z,4.22
2023-01-06T20:31:40.088Z,4.20
2023-01-06T20:34:26.043Z,4.93
2023-01-06T20:37:11.588Z,5.23
2023-01-06T20:39:57.144Z,5.32
2023-01-06T20:42:42.610Z,4.60
2023-01-06T20:45:28.214Z,4.40
2023-01-06T20:48:13.818Z,4.70
2023-01-06T20:50:59.128Z,4.28
2023-01-06T20:53:44.757Z,4.93
2023-01-06T20:56:30.119Z,4.80
2023-01-06T20:59:15.815Z,4.97
2023-01-06T21:02:01.551Z,4.90
2023-01-06T21:04:46.847Z,4.83
2023-01-06T21:07:33.391Z,5.07
2023-01-06T21:10:18.896Z,4.87
2023-01-06T21:13:04.277Z,4.55
2023-01-06T21:15:49.697Z,5.03
2023-01-06T21:18:35.291Z,4.97
2023-01-06T21:21:20.955Z,5.00
2023-01-06T21:24:06.336Z,4.90
2023-01-06T21:26:52.307Z,4.70
2023-01-06T21:29:37.503Z,4.90
2023-01-06T21:32:22.874Z,4.70
2023-01-06T21:35:08.917Z,5.00
2023-01-06T21:37:54.443Z,4.97
2023-01-06T21:40:39.661Z,5.47
2023-01-06T21:43:25.101Z,5.20
2023-01-06T21:46:10.751Z,4.40
2023-01-06T21:48:56.088Z,4.70
2023-01-06T21:51:41.656Z,4.57
2023-01-06T21:54:27.179Z,4.68
2023-01-06T21:57:12.896Z,5.20
2023-01-06T21:59:58.509Z,4.87
2023-01-06T22:02:46.298Z,4.83
2023-01-06T22:05:31.809Z,5.00
2023-01-06T22:08:17.885Z,5.60
2023-01-06T22:11:04.144Z,5.30
2023-01-06T22:13:49.637Z,4.53
2023-01-06T22:16:37.279Z,4.93
2023-01-06T22:19:25.698Z,4.73
2023-01-06T22:22:11.600Z,5.00
2023-01-06T22:24:57.599Z,4.13
2023-01-06T22:27:42.832Z,5.17
2023-01-06T22:30:30.566Z,4.80
2023-01-06T22:33:18.089Z,5.22
2023-01-06T22:36:03.348Z,4.63
2023-01-06T22:38:48.505Z,4.93
2023-01-06T22:41:34.489Z,4.60
2023-01-06T22:44:20.319Z,4.88
2023-01-06T22:47:06.055Z,4.90
2023-01-06T22:49:51.627Z,4.60
2023-01-06T22:52:37.146Z,4.73
2023-01-06T22:55:22.741Z,4.70
2023-01-06T22:58:08.066Z,4.80
2023-01-06T23:00:53.926Z,5.10
2023-01-06T23:03:39.496Z,4.75
2023-01-06T23:06:24.938Z,4.73
2023-01-06T23:09:10.270Z,4.90
2023-01-06T23:11:55.895Z,4.83
2023-01-06T23:14:41.521Z,4.50
2023-01-06T23:17:26.905Z,4.57
2023-01-06T23:20:12.517Z,4.63
2023-01-06T23:22:58.423Z,4.20
2023-01-06T23:25:43.631Z,4.43
2023-01-06T23:28:29.548Z,4.57
2023-01-06T23:31:17.536Z,5.05
2023-01-06T23:34:06.271Z,4.70
2023-01-06T23:36:51.692Z,5.13
2023-01-06T23:39:36.918Z,4.50
2023-01-06T23:42:22.393Z,4.72
2023-01-06T23:45:08.625Z,4.80
2023-01-06T23:47:54.105Z,5.37
2023-01-06T23:50:39.604Z,5.33
2023-01-06T23:53:26.069Z,5.32
2023-01-06T23:56:18.673Z,5.30
2023-01-06T23:59:08.685Z,5.03
